Evanston-Uinta County Airport-Burns Field Evanston US
ICAO: KEVW
IATA: EVW
Category: Medium
Scheduled Services: No

Elevation: 7143 ft
TransAlt. 18000 ft.

Airport Communications:
ASOS:120
SALT LAKE CITY CNTR:127.7
CTAF/UNICOM:122.8

KEVW Zoom In..

If Map Doesn't Load, Click Here

Runways:

(A) RW 05 length 7300 ft width 100 ft
---- / hdg 54

(B) RW 23 length 7300 ft width 100 ft
ILS 108.90 / hdg 234

Location; KEVW
Day. 23 / Time. 08.53 Zulu
* Altimeter: 30.13
* Temperature: 13° c. 55.4°f.
* Wind from: 200° Speed 08 kn.
Dewpoint: -03° c.
Visibility: 10 Statute Miles.
Clouds: Clear (automated report).

KEVW 230853Z AUTO 20008KT 10SM CLR 13/M03 A3013 RMK AO2 SLP102 T01331028 56007


Wind From 200°
Speed 08 kn.

 
 
jpsmedia.com for Web Design worldairports.se 2018   terms of use